Time;durP1;ratioP1;P1;durP2;ratioP2;P2;SDS_P1;SDS_P2;PMS_P1;PMS_P2;Temp;Humidity;BMP_temperature;BMP_pressure;BME280_temperature;BME280_humidity;BME280_pressure;Samples;Min_cycle;Max_cycle;Signal;HPM_P1;HPM_P2
2023/10/17 00:01:34;;;;;;;5.88;2.50;;;;;;;6.22;50.62;95256.09;5062586;28;20028;-73
2023/10/17 00:06:37;;;;;;;4.07;2.50;;;;;;;6.24;50.96;95245.66;5049519;28;20036;-73
2023/10/17 00:09:06;;;;;;;4.75;2.72;;;;;;;6.21;50.98;95251.84;5067982;28;20021;-74
2023/10/17 00:11:45;;;;;;;4.40;2.58;;;;;;;6.15;50.78;95241.88;5066018;28;20031;-73
2023/10/17 00:14:11;;;;;;;4.47;2.22;;;;;;;6.37;50.31;95256.09;5066358;28;20032;-74
2023/10/17 00:16:37;;;;;;;3.40;2.15;;;;;;;6.18;51.11;95246.03;5030094;28;20052;-74
2023/10/17 00:19:09;;;;;;;4.90;2.72;;;;;;;6.09;51.06;95226.75;5066941;28;20315;-74
2023/10/17 00:21:37;;;;;;;4.55;2.30;;;;;;;6.15;51.14;95212.66;5047326;28;20040;-74
2023/10/17 00:24:09;;;;;;;3.67;2.45;;;;;;;6.25;51.44;95222.38;5064268;28;20520;-74
2023/10/17 00:26:39;;;;;;;3.40;2.38;;;;;;;6.31;51.57;95235.81;5047530;28;20521;-73
2023/10/17 00:29:05;;;;;;;4.43;2.50;;;;;;;6.30;51.60;95239.34;5027910;28;20037;-73
2023/10/17 00:31:32;;;;;;;3.67;2.45;;;;;;;6.32;51.96;95230.56;5065617;28;20043;-74
2023/10/17 00:33:57;;;;;;;5.30;2.13;;;;;;;6.23;51.87;95231.09;5045675;28;20112;-74
2023/10/17 00:36:26;;;;;;;4.80;2.65;;;;;;;6.30;52.26;95229.84;5063497;28;20027;-74
2023/10/17 00:38:54;;;;;;;3.78;2.40;;;;;;;6.21;52.48;95217.47;5044997;28;20041;-73
2023/10/17 00:41:47;;;;;;;3.95;2.38;;;;;;;6.16;52.87;95230.66;5049044;28;20040;-73
2023/10/17 00:44:14;;;;;;;5.22;2.00;;;;;;;6.03;53.22;95227.13;5064405;28;20517;-73
2023/10/17 00:46:41;;;;;;;5.35;2.42;;;;;;;6.25;53.33;95222.38;5063642;28;20036;-73
2023/10/17 00:49:07;;;;;;;3.60;2.22;;;;;;;6.26;52.97;95221.44;5064184;28;20044;-73
2023/10/17 00:51:32;;;;;;;4.65;2.53;;;;;;;6.13;53.57;95222.25;5052485;28;20071;-73
2023/10/17 00:54:00;;;;;;;3.88;2.42;;;;;;;6.21;53.45;95223.47;5036044;28;20025;-73
2023/10/17 00:56:26;;;;;;;3.38;2.13;;;;;;;6.17;53.45;95224.56;5050532;28;20032;-73
2023/10/17 00:58:51;;;;;;;4.50;2.10;;;;;;;6.29;53.51;95222.19;5069271;28;20032;-73
2023/10/17 01:01:20;;;;;;;4.00;2.30;;;;;;;6.30;53.41;95216.94;5068775;28;20028;-73
2023/10/17 01:03:47;;;;;;;4.85;2.45;;;;;;;5.96;53.86;95202.59;5069240;28;20039;-73
2023/10/17 01:09:07;;;;;;;3.80;2.22;;;;;;;6.10;54.27;95219.84;5069677;28;20101;-73
2023/10/17 01:11:38;;;;;;;2.90;2.03;;;;;;;5.78;54.97;95212.22;5052073;28;20552;-73
2023/10/17 01:14:04;;;;;;;4.85;2.10;;;;;;;5.75;55.09;95225.28;5052573;28;20494;-73
2023/10/17 01:16:33;;;;;;;3.78;2.22;;;;;;;5.68;55.05;95209.31;5032874;28;20028;-73
2023/10/17 01:19:04;;;;;;;3.97;2.35;;;;;;;5.65;55.46;95216.41;5049151;28;20186;-73
2023/10/17 01:21:29;;;;;;;4.17;2.63;;;;;;;5.49;56.18;95226.75;5068950;28;20016;-74
2023/10/17 01:23:55;;;;;;;4.22;2.38;;;;;;;5.43;56.32;95229.66;5062519;28;20024;-73
2023/10/17 01:26:23;;;;;;;3.90;2.30;;;;;;;5.22;57.13;95218.81;5069058;28;20036;-73
2023/10/17 01:28:50;;;;;;;4.72;2.35;;;;;;;5.01;58.12;95220.81;5050289;28;20533;-73
2023/10/17 01:31:16;;;;;;;3.35;2.03;;;;;;;5.08;58.49;95232.47;5035426;28;20155;-73
2023/10/17 01:33:45;;;;;;;3.20;2.25;;;;;;;5.02;58.31;95219.94;5067119;28;20028;-74
2023/10/17 01:36:10;;;;;;;4.75;2.35;;;;;;;4.80;58.66;95208.22;5053006;28;20039;-73
2023/10/17 01:38:36;;;;;;;4.65;2.63;;;;;;;5.13;58.81;95226.16;5050234;28;20036;-73
2023/10/17 01:41:02;;;;;;;5.53;2.55;;;;;;;5.10;58.94;95222.91;5069480;28;20115;-73
2023/10/17 01:43:30;;;;;;;3.97;2.50;;;;;;;5.00;59.42;95214.84;5066410;28;20395;-73
2023/10/17 01:45:56;;;;;;;3.63;2.15;;;;;;;5.01;59.31;95225.97;5051570;28;20429;-73
2023/10/17 01:48:23;;;;;;;3.90;2.63;;;;;;;5.17;59.58;95219.06;5065973;28;20115;-73
2023/10/17 01:50:49;;;;;;;6.43;2.33;;;;;;;5.02;59.92;95222.50;5066770;28;20032;-73
2023/10/17 01:53:14;;;;;;;3.65;2.05;;;;;;;5.10;60.15;95221.16;5067282;28;20071;-73
2023/10/17 01:55:42;;;;;;;4.05;2.22;;;;;;;5.06;60.32;95221.41;5051418;28;20036;-74
2023/10/17 01:58:07;;;;;;;7.07;2.45;;;;;;;5.14;60.37;95220.06;5048443;28;20059;-73
2023/10/17 02:02:59;;;;;;;5.05;2.65;;;;;;;5.00;60.61;95221.75;5067935;28;20514;-73
2023/10/17 02:05:25;;;;;;;4.20;2.17;;;;;;;4.78;61.07;95220.31;5069763;28;20032;-73
2023/10/17 02:07:50;;;;;;;3.67;2.20;;;;;;;4.79;61.48;95214.28;5067044;28;20058;-73
2023/10/17 02:10:21;;;;;;;5.07;2.50;;;;;;;4.96;61.20;95213.38;5065974;28;20082;-73
2023/10/17 02:12:49;;;;;;;5.57;2.78;;;;;;;4.87;61.31;95208.69;5067450;28;20068;-73
2023/10/17 02:15:24;;;;;;;3.03;2.13;;;;;;;4.50;62.04;95156.63;5034300;28;20124;-73
2023/10/17 02:17:51;;;;;;;3.72;2.25;;;;;;;4.59;62.38;95193.91;5050308;28;20056;-73
2023/10/17 02:20:29;;;;;;;6.22;2.58;;;;;;;4.69;63.04;95215.66;5066226;28;20029;-72
2023/10/17 02:23:00;;;;;;;3.10;2.15;;;;;;;4.66;63.16;95197.81;5067535;28;20029;-74
2023/10/17 02:25:32;;;;;;;4.00;2.50;;;;;;;4.84;63.69;95191.66;5046328;28;20021;-73
2023/10/17 02:27:59;;;;;;;3.85;1.92;;;;;;;5.10;64.97;95197.97;5063621;28;20047;-73
2023/10/17 02:30:24;;;;;;;4.15;2.53;;;;;;;5.10;63.70;95194.59;5067123;28;20163;-73
2023/10/17 02:32:53;;;;;;;3.60;2.47;;;;;;;5.05;63.33;95202.56;5049941;28;20119;-73
2023/10/17 02:35:21;;;;;;;4.70;2.25;;;;;;;5.19;62.60;95190.66;5068469;28;20075;-73
2023/10/17 02:37:47;;;;;;;4.70;2.47;;;;;;;5.13;62.25;95186.69;5047568;28;20079;-73
2023/10/17 02:40:23;;;;;;;4.18;2.03;;;;;;;5.28;61.98;95190.97;5049946;28;20032;-73
2023/10/17 02:42:48;;;;;;;4.07;2.55;;;;;;;5.15;62.31;95192.56;5066840;28;20083;-73
2023/10/17 02:45:24;;;;;;;5.03;2.30;;;;;;;5.10;62.47;95189.44;5049715;28;20048;-73
2023/10/17 02:48:23;;;;;;;6.05;2.38;;;;;;;5.00;63.38;95188.28;5050010;28;20386;-73
2023/10/17 02:51:00;;;;;;;7.22;2.42;;;;;;;4.92;63.46;95206.72;5053114;28;20080;-73
2023/10/17 02:53:29;;;;;;;4.80;2.47;;;;;;;4.99;63.20;95186.63;5065599;28;20040;-73
2023/10/17 02:55:57;;;;;;;3.95;2.60;;;;;;;4.92;63.63;95192.09;5050334;28;20052;-73
2023/10/17 02:58:22;;;;;;;4.18;2.80;;;;;;;4.86;64.57;95195.00;5065514;28;20123;-73
2023/10/17 03:00:47;;;;;;;3.67;2.40;;;;;;;4.81;64.20;95168.66;5068390;28;20031;-73
2023/10/17 03:03:19;;;;;;;6.18;2.60;;;;;;;4.89;64.34;95194.81;5066682;28;20043;-73
2023/10/17 03:05:50;;;;;;;5.57;2.30;;;;;;;4.46;65.86;95193.75;5064658;28;20040;-73
2023/10/17 03:08:17;;;;;;;7.03;2.40;;;;;;;4.51;65.39;95163.44;5049522;28;20048;-73
2023/10/17 03:10:43;;;;;;;3.38;2.42;;;;;;;4.65;65.34;95202.16;5066559;28;20035;-73
2023/10/17 03:15:48;;;;;;;5.45;2.63;;;;;;;4.68;65.51;95203.69;5066792;28;20502;-73
2023/10/17 03:18:17;;;;;;;4.15;2.70;;;;;;;4.51;65.76;95202.03;5064491;28;20045;-73
2023/10/17 03:20:50;;;;;;;4.10;2.30;;;;;;;4.57;66.26;95206.88;5067507;28;20024;-74
2023/10/17 03:23:28;;;;;;;5.75;2.58;;;;;;;4.68;66.19;95214.00;5065370;28;20051;-72
2023/10/17 03:26:00;;;;;;;5.03;2.80;;;;;;;4.57;66.92;95203.44;5046759;28;20098;-74
2023/10/17 03:28:27;;;;;;;4.43;2.65;;;;;;;4.74;66.21;95207.72;5062947;28;20048;-72
2023/10/17 03:30:53;;;;;;;4.05;2.55;;;;;;;4.65;66.61;95180.69;5064656;28;20029;-74
2023/10/17 03:33:27;;;;;;;4.65;3.13;;;;;;;4.63;66.96;95188.53;5065945;28;20103;-72
2023/10/17 03:38:26;;;;;;;4.80;2.97;;;;;;;4.62;67.22;95201.47;5065132;28;20033;-72
2023/10/17 03:40:53;;;;;;;5.47;3.50;;;;;;;4.46;67.34;95191.16;5066169;28;20418;-74
2023/10/17 03:43:21;;;;;;;4.75;3.10;;;;;;;4.70;67.68;95209.59;5047814;28;20048;-72
2023/10/17 03:45:56;;;;;;;5.95;3.10;;;;;;;4.76;68.10;95200.72;5066380;28;20017;-72
2023/10/17 03:48:23;;;;;;;5.03;3.35;;;;;;;4.60;67.95;95180.16;5049173;28;20051;-72
2023/10/17 03:50:57;;;;;;;3.85;2.85;;;;;;;4.69;68.14;95198.47;5066846;28;20476;-74
2023/10/17 03:53:28;;;;;;;3.92;2.80;;;;;;;4.81;67.53;95173.81;5049885;28;20521;-73
2023/10/17 03:55:54;;;;;;;6.90;2.90;;;;;;;4.75;67.58;95179.31;5032468;28;20045;-74
2023/10/17 04:00:48;;;;;;;4.70;2.65;;;;;;;4.91;67.90;95205.88;5063116;28;20037;-72
2023/10/17 04:03:48;;;;;;;4.28;2.92;;;;;;;4.41;69.32;95177.72;5047575;28;20029;-73
2023/10/17 04:09:25;;;;;;;6.18;3.05;;;;;;;4.71;68.19;95185.53;5064376;28;20498;-72
2023/10/17 04:11:25;;;;;;;4.10;2.80;;;;;;;4.89;67.87;95199.16;5059882;28;20068;-72
2023/10/17 04:14:00;;;;;;;5.05;3.25;;;;;;;4.88;67.82;95185.47;5048295;28;20051;-72
2023/10/17 04:16:38;;;;;;;4.15;2.72;;;;;;;4.96;68.03;95208.22;5064112;28;20512;-72
2023/10/17 04:24:46;;;;;;;4.75;2.85;;;;;;;4.84;67.70;95172.81;5066682;28;20411;-73
2023/10/17 04:29:38;;;;;;;5.70;2.95;;;;;;;4.88;68.08;95203.47;5069419;28;20036;-73
2023/10/17 04:32:10;;;;;;;4.78;3.17;;;;;;;4.86;67.79;95183.88;5069447;28;20075;-73
2023/10/17 04:34:43;;;;;;;5.60;3.20;;;;;;;4.66;68.19;95182.38;5069869;28;20024;-73
2023/10/17 04:37:10;;;;;;;5.97;3.28;;;;;;;4.64;69.20;95187.59;5067621;28;20028;-73
2023/10/17 04:39:35;;;;;;;6.05;3.38;;;;;;;4.82;69.04;95179.78;5069467;28;20035;-73
2023/10/17 04:44:34;;;;;;;6.13;3.17;;;;;;;4.82;68.85;95185.78;5053395;28;20103;-73
2023/10/17 04:49:25;;;;;;;7.70;3.88;;;;;;;5.07;68.63;95179.28;5069728;28;20411;-73
2023/10/17 04:51:53;;;;;;;5.57;3.42;;;;;;;4.78;69.21;95153.41;5065665;28;20041;-73
2023/10/17 04:56:55;;;;;;;5.07;3.53;;;;;;;5.07;68.93;95181.84;5068094;28;20037;-73
2023/10/17 04:59:51;;;;;;;4.78;3.67;;;;;;;5.32;68.33;95200.19;5045124;28;20033;-73
2023/10/17 05:03:04;;;;;;;8.32;3.97;;;;;;;5.26;69.04;95190.22;5048085;28;20041;-73
2023/10/17 06:18:31;;;;;;;5.50;3.50;;;;;;;7.60;61.14;95224.34;5064909;28;20079;-73
2023/10/17 06:32:17;;;;;;;6.13;3.38;;;;;;;8.78;57.59;95235.56;5046370;28;20049;-73
2023/10/17 06:34:45;;;;;;;5.80;3.60;;;;;;;8.76;58.62;95234.81;5064586;28;20029;-74
2023/10/17 06:37:11;;;;;;;7.15;3.80;;;;;;;8.76;57.56;95224.47;5065964;28;20460;-73
2023/10/17 06:39:36;;;;;;;4.90;3.13;;;;;;;8.89;57.09;95226.09;5066575;28;20028;-73
2023/10/17 06:45:01;;;;;;;9.00;2.95;;;;;;;9.15;56.35;95215.66;5052109;28;20043;-74
2023/10/17 06:47:41;;;;;;;6.32;2.80;;;;;;;9.56;55.11;95225.66;5065083;28;20041;-72
2023/10/17 06:55:21;;;;;;;6.47;3.53;;;;;;;11.37;50.14;95226.75;5050883;28;20108;-72
2023/10/17 06:57:50;;;;;;;5.72;2.80;;;;;;;11.39;49.61;95235.25;5055178;28;20029;-72
2023/10/17 07:00:17;;;;;;;4.43;2.50;;;;;;;11.31;49.57;95209.88;5066744;28;20446;-73
2023/10/17 07:02:48;;;;;;;5.95;2.95;;;;;;;11.22;49.93;95213.16;5065023;28;20559;-73
2023/10/17 07:05:14;;;;;;;6.50;2.50;;;;;;;11.44;49.25;95217.50;5069615;28;20390;-73
2023/10/17 07:07:41;;;;;;;4.63;2.35;;;;;;;11.12;49.86;95220.88;5049941;28;20039;-73
2023/10/17 07:10:17;;;;;;;4.55;2.38;;;;;;;11.27;49.79;95220.63;5050814;28;20029;-73
2023/10/17 07:12:47;;;;;;;5.30;2.45;;;;;;;10.92;50.17;95212.03;5068610;28;20068;-72
2023/10/17 07:15:18;;;;;;;6.13;2.40;;;;;;;10.70;51.61;95204.25;5054508;28;20027;-72
2023/10/17 07:18:39;;;;;;;5.60;2.05;;;;;;;10.79;51.20;95213.13;5052478;28;20049;-72
2023/10/17 07:23:20;;;;;;;3.33;1.73;;;;;;;10.53;50.22;95205.56;5068953;28;20488;-72
2023/10/17 07:25:49;;;;;;;3.13;1.60;;;;;;;10.37;50.84;95197.28;5069548;28;20029;-72
2023/10/17 07:28:15;;;;;;;4.20;1.63;;;;;;;10.28;50.98;95206.59;5068952;28;20115;-72
2023/10/17 07:30:49;;;;;;;3.15;1.70;;;;;;;10.21;50.98;95184.59;5069068;28;20058;-72
2023/10/17 07:33:17;;;;;;;3.53;1.75;;;;;;;10.26;50.44;95191.09;5069350;28;20039;-73
2023/10/17 07:35:43;;;;;;;2.35;1.67;;;;;;;10.29;50.73;95196.06;5067908;28;20063;-72
2023/10/17 07:38:09;;;;;;;3.95;2.03;;;;;;;10.21;50.57;95185.41;5051424;28;20064;-72
2023/10/17 07:43:09;;;;;;;4.28;1.63;;;;;;;10.27;50.82;95182.38;5070131;28;20140;-72
2023/10/17 07:45:41;;;;;;;4.72;1.67;;;;;;;10.23;51.25;95186.13;5053749;28;20032;-73
2023/10/17 07:48:20;;;;;;;3.92;1.65;;;;;;;10.44;50.69;95186.28;5054037;28;20021;-72
2023/10/17 07:50:53;;;;;;;10.93;1.80;;;;;;;10.32;50.29;95179.44;5055108;28;20047;-72
2023/10/17 07:53:22;;;;;;;2.15;1.30;;;;;;;10.50;49.98;95169.41;5069949;28;20032;-72
2023/10/17 07:55:52;;;;;;;3.10;1.50;;;;;;;10.72;49.29;95179.78;5037222;28;20040;-72
2023/10/17 07:58:38;;;;;;;5.20;1.85;;;;;;;10.31;50.04;95174.34;5069449;28;20028;-72
2023/10/17 08:01:07;;;;;;;3.28;1.73;;;;;;;10.51;50.15;95177.09;5069715;28;20044;-72
2023/10/17 08:03:34;;;;;;;2.40;1.33;;;;;;;10.59;49.55;95176.50;5069824;28;20086;-72
2023/10/17 08:06:05;;;;;;;2.58;1.52;;;;;;;10.50;51.32;95188.44;5069622;28;20478;-72
2023/10/17 08:08:43;;;;;;;2.30;1.50;;;;;;;10.70;49.52;95184.28;5069600;28;20086;-72
2023/10/17 08:11:26;;;;;;;6.55;1.50;;;;;;;10.91;48.99;95183.56;5069649;28;20036;-72
2023/10/17 08:13:55;;;;;;;2.42;1.80;;;;;;;10.74;48.93;95180.50;5055598;28;20074;-72
2023/10/17 08:17:03;;;;;;;3.38;1.42;;;;;;;10.74;49.54;95177.91;5053367;28;20028;-72
2023/10/17 08:19:13;;;;;;;3.22;1.77;;;;;;;10.71;49.48;95149.56;5064075;28;20056;-72
2023/10/17 08:24:33;;;;;;;6.07;1.80;;;;;;;10.82;49.68;95158.31;5069724;28;20097;-72
2023/10/17 08:27:19;;;;;;;4.15;1.77;;;;;;;11.08;48.41;95184.84;5070572;28;20027;-72
2023/10/17 08:30:13;;;;;;;2.20;1.55;;;;;;;10.85;49.03;95177.06;5069260;28;20063;-72
2023/10/17 08:32:39;;;;;;;3.38;1.35;;;;;;;10.80;48.98;95176.59;5070213;28;20037;-72
2023/10/17 08:35:18;;;;;;;4.22;1.65;;;;;;;10.96;48.20;95181.44;5069356;28;20060;-72
2023/10/17 08:37:44;;;;;;;4.03;1.75;;;;;;;10.95;48.29;95182.38;5069614;28;20267;-72
2023/10/17 08:40:59;;;;;;;3.22;1.52;;;;;;;10.99;48.26;95180.38;5052574;28;20044;-72
2023/10/17 08:42:59;;;;;;;2.45;1.55;;;;;;;11.06;47.72;95166.78;5048159;28;20040;-72
2023/10/17 08:45:26;;;;;;;3.28;1.50;;;;;;;10.97;47.84;95157.09;5036155;28;20245;-72
2023/10/17 08:47:57;;;;;;;2.75;1.80;;;;;;;10.77;49.56;95147.44;5035831;28;20033;-72
2023/10/17 08:50:24;;;;;;;;;;;;;;;10.90;48.61;95176.72;5069969;28;20055;-72
2023/10/17 08:52:49;;;;;;;2.80;1.80;;;;;;;10.84;48.19;95153.81;5052523;28;19927;-72
2023/10/17 08:55:15;;;;;;;2.63;1.35;;;;;;;11.02;48.12;95172.31;5036011;28;20024;-72
2023/10/17 08:57:40;;;;;;;2.83;1.50;;;;;;;11.03;48.60;95161.81;5052477;28;20033;-72
2023/10/17 09:02:48;;;;;;;3.97;1.63;;;;;;;11.21;47.69;95169.09;5053133;28;20052;-72
2023/10/17 09:05:18;;;;;;;2.40;1.42;;;;;;;11.08;47.07;95177.84;5054430;28;20063;-72
2023/10/17 09:07:47;;;;;;;5.22;1.90;;;;;;;10.96;48.40;95173.63;5052677;28;20460;-72
2023/10/17 09:10:17;;;;;;;3.45;1.33;;;;;;;11.09;47.08;95160.50;5070608;28;20028;-72
2023/10/17 09:13:14;;;;;;;5.50;1.88;;;;;;;11.01;47.11;95158.50;5055930;28;20067;-72
2023/10/17 09:15:30;;;;;;;2.25;1.35;;;;;;;11.08;47.30;95174.44;5072840;28;20028;-73
2023/10/17 09:18:08;;;;;;;4.15;1.77;;;;;;;11.22;46.28;95171.56;5072389;28;20056;-72
2023/10/17 09:20:36;;;;;;;3.13;1.65;;;;;;;11.03;47.43;95155.78;5074303;28;20047;-72
2023/10/17 09:23:02;;;;;;;3.63;1.70;;;;;;;11.16;47.38;95154.69;5055829;28;20405;-73
2023/10/17 09:25:30;;;;;;;4.18;1.73;;;;;;;11.24;47.32;95150.66;5039410;28;20033;-72
2023/10/17 09:27:56;;;;;;;2.75;1.70;;;;;;;11.18;46.89;95141.56;5073493;28;20032;-72
2023/10/17 09:30:26;;;;;;;2.75;1.63;;;;;;;10.99;47.28;95143.97;5055967;28;20155;-72
2023/10/17 09:32:52;;;;;;;4.50;1.80;;;;;;;10.92;47.89;95139.28;5072180;28;20493;-72
2023/10/17 09:35:18;;;;;;;3.35;1.58;;;;;;;10.94;47.59;95115.75;5055866;28;20107;-72
2023/10/17 09:37:51;;;;;;;2.00;1.52;;;;;;;11.23;47.39;95126.44;5073374;28;20068;-72
2023/10/17 09:40:33;;;;;;;3.08;1.60;;;;;;;11.25;47.37;95121.91;5072396;28;20031;-72
2023/10/17 09:43:01;;;;;;;3.20;1.38;;;;;;;11.40;47.03;95127.66;5042816;28;20287;-72
2023/10/17 09:45:35;;;;;;;3.47;1.95;;;;;;;11.42;47.56;95123.13;5072367;28;20132;-72
2023/10/17 09:48:04;;;;;;;3.88;1.60;;;;;;;11.53;46.93;95125.72;5073122;28;20068;-72
2023/10/17 09:50:30;;;;;;;2.63;1.55;;;;;;;11.38;47.14;95106.97;5072190;28;20025;-72
2023/10/17 09:52:56;;;;;;;4.32;1.40;;;;;;;11.44;47.12;95103.03;5071967;28;20407;-72
2023/10/17 09:55:25;;;;;;;3.50;1.85;;;;;;;11.48;47.39;95107.06;5055618;28;20028;-72
2023/10/17 09:57:52;;;;;;;2.63;1.70;;;;;;;11.54;47.14;95103.94;5073055;28;20032;-72
2023/10/17 10:00:39;;;;;;;2.70;1.58;;;;;;;11.43;46.90;95085.78;5071797;28;20033;-72
2023/10/17 10:03:04;;;;;;;5.47;1.70;;;;;;;11.50;46.71;95086.91;5057419;28;20039;-72
2023/10/17 10:05:30;;;;;;;3.03;1.60;;;;;;;11.50;47.10;95092.13;5038610;28;20024;-72
2023/10/17 10:08:04;;;;;;;3.22;1.92;;;;;;;11.69;46.93;95112.25;5072758;28;20399;-72
2023/10/17 10:10:42;;;;;;;3.58;1.80;;;;;;;11.77;46.06;95103.81;5071966;28;20028;-72
2023/10/17 10:13:13;;;;;;;4.03;1.80;;;;;;;11.74;46.04;95093.66;5072832;28;20028;-72
2023/10/17 10:15:55;;;;;;;3.13;2.13;;;;;;;11.83;45.77;95092.91;5055905;28;20032;-72
2023/10/17 10:18:40;;;;;;;2.65;1.60;;;;;;;11.77;46.66;95090.81;5071519;28;20059;-72
2023/10/17 10:21:07;;;;;;;4.60;1.80;;;;;;;11.99;45.27;95098.50;5068599;28;20076;-72
2023/10/17 10:23:36;;;;;;;4.53;2.45;;;;;;;11.99;45.72;95097.69;5071141;28;20028;-72
2023/10/17 10:26:10;;;;;;;3.20;2.15;;;;;;;12.01;45.37;95094.00;5071352;28;20033;-72
2023/10/17 10:28:37;;;;;;;3.45;1.88;;;;;;;11.80;45.65;95064.53;5072348;28;20035;-72
2023/10/17 10:31:21;;;;;;;3.90;2.20;;;;;;;12.08;45.61;95087.31;5071276;28;20182;-73
2023/10/17 10:33:48;;;;;;;3.15;2.00;;;;;;;11.96;45.86;95072.75;5072254;28;20052;-72
2023/10/17 10:36:13;;;;;;;3.35;1.98;;;;;;;12.15;45.09;95079.81;5054613;28;20039;-72
2023/10/17 10:38:38;;;;;;;4.38;1.88;;;;;;;12.09;45.77;95093.38;5054324;28;20024;-72
2023/10/17 10:41:07;;;;;;;3.22;1.80;;;;;;;12.02;45.83;95072.22;5071062;28;20414;-72
2023/10/17 10:43:33;;;;;;;3.42;1.55;;;;;;;12.07;45.63;95090.06;5054301;28;20021;-72
2023/10/17 10:46:00;;;;;;;7.25;2.25;;;;;;;12.04;45.69;95075.53;5072154;28;20082;-72
2023/10/17 10:48:26;;;;;;;4.43;2.00;;;;;;;11.99;45.73;95074.25;5070650;28;20559;-72
2023/10/17 10:50:55;;;;;;;3.95;1.98;;;;;;;12.10;45.84;95079.38;5054400;28;20025;-72
2023/10/17 10:53:31;;;;;;;4.15;2.10;;;;;;;12.07;45.69;95077.84;5054455;28;20044;-72
2023/10/17 10:56:01;;;;;;;2.90;1.92;;;;;;;11.84;46.21;95073.75;5055550;28;20067;-72
2023/10/17 10:58:27;;;;;;;3.33;2.30;;;;;;;11.83;45.92;95080.69;5054161;28;20115;-72
2023/10/17 11:00:54;;;;;;;4.45;2.38;;;;;;;11.78;46.59;95082.03;5054145;28;20028;-72
2023/10/17 11:03:23;;;;;;;3.08;2.13;;;;;;;11.83;46.56;95080.69;5071805;28;20035;-72
2023/10/17 11:05:52;;;;;;;5.82;2.50;;;;;;;11.83;46.68;95078.09;5072176;28;20024;-73
2023/10/17 11:08:19;;;;;;;4.20;2.28;;;;;;;11.79;46.39;95073.31;5071609;28;20032;-72
2023/10/17 11:10:46;;;;;;;2.92;1.90;;;;;;;11.72;46.13;95070.38;5070348;28;20024;-72
2023/10/17 11:13:11;;;;;;;3.92;2.08;;;;;;;11.44;47.30;95040.59;5071613;28;20061;-72
2023/10/17 11:15:39;;;;;;;4.07;2.25;;;;;;;11.70;47.32;95067.09;5072034;28;20478;-72
2023/10/17 11:18:06;;;;;;;3.67;2.20;;;;;;;11.74;46.38;95058.06;5053530;28;20059;-72
2023/10/17 11:20:33;;;;;;;4.10;2.28;;;;;;;11.76;46.80;95065.75;5054089;28;20035;-72
2023/10/17 11:22:58;;;;;;;3.38;1.95;;;;;;;11.57;46.88;95048.22;5070212;28;20550;-72
2023/10/17 11:25:27;;;;;;;4.78;2.30;;;;;;;11.59;46.54;95044.56;5071814;28;20104;-72
2023/10/17 11:28:02;;;;;;;3.40;1.92;;;;;;;11.66;47.44;95044.03;5053692;28;20032;-72
2023/10/17 11:30:40;;;;;;;4.50;2.20;;;;;;;11.69;47.27;95033.38;5070195;28;20086;-72
2023/10/17 11:33:11;;;;;;;4.72;2.30;;;;;;;11.64;47.07;95025.94;5054928;28;20036;-72
2023/10/17 11:35:58;;;;;;;5.47;2.10;;;;;;;11.70;46.66;95019.41;5070071;28;20039;-72
2023/10/17 11:38:34;;;;;;;3.53;2.30;;;;;;;11.71;46.72;95018.47;5053237;28;20036;-72
2023/10/17 11:41:01;;;;;;;2.65;1.90;;;;;;;11.73;46.97;94998.31;5071171;28;20029;-72
2023/10/17 11:43:34;;;;;;;4.32;2.30;;;;;;;11.81;46.38;95007.16;5053423;28;20024;-72
2023/10/17 11:46:00;;;;;;;4.60;2.45;;;;;;;11.85;46.81;95005.09;5069970;28;20119;-72
2023/10/17 11:48:39;;;;;;;3.90;2.45;;;;;;;11.95;46.13;95011.22;5053209;28;20035;-72
2023/10/17 11:51:18;;;;;;;4.05;2.22;;;;;;;11.92;45.79;94998.44;5054328;28;20111;-72
2023/10/17 11:54:06;;;;;;;3.60;1.90;;;;;;;11.81;46.95;95006.31;5054456;28;20070;-72
2023/10/17 11:56:32;;;;;;;3.28;2.08;;;;;;;11.77;46.59;95004.94;5070953;28;20024;-72
2023/10/17 11:58:58;;;;;;;6.03;2.25;;;;;;;11.89;46.64;95003.91;5053066;28;20024;-72
2023/10/17 12:01:23;;;;;;;5.55;2.20;;;;;;;11.63;46.55;94973.09;5069763;28;20055;-72
2023/10/17 12:03:53;;;;;;;4.53;1.98;;;;;;;11.77;46.79;95002.31;5069563;28;20032;-72
2023/10/17 12:06:21;;;;;;;4.68;1.92;;;;;;;11.77;47.15;95010.94;5069736;28;20097;-72
2023/10/17 12:08:47;;;;;;;5.05;2.10;;;;;;;11.71;47.07;94997.63;5069520;28;20067;-72
2023/10/17 12:11:12;;;;;;;5.70;2.20;;;;;;;11.62;48.31;95002.66;5052877;28;20032;-72
2023/10/17 12:13:37;;;;;;;3.42;2.25;;;;;;;11.61;47.99;94995.78;5069564;28;20049;-72
2023/10/17 12:16:08;;;;;;;4.28;2.25;;;;;;;11.82;47.68;95007.97;5069559;28;20047;-72
2023/10/17 12:18:39;;;;;;;3.83;1.70;;;;;;;11.68;47.01;94980.50;5069509;28;20040;-72
2023/10/17 12:21:07;;;;;;;2.95;1.67;;;;;;;11.79;47.09;94998.63;5053215;28;20029;-72
2023/10/17 12:23:33;;;;;;;3.25;2.00;;;;;;;11.82;47.36;94997.56;5053170;28;20431;-72
2023/10/17 12:25:58;;;;;;;4.22;1.85;;;;;;;11.78;47.55;95002.22;5069469;28;20032;-72
2023/10/17 12:28:26;;;;;;;4.78;2.20;;;;;;;11.71;47.99;95002.84;5069334;28;20090;-72
2023/10/17 12:30:53;;;;;;;3.58;2.03;;;;;;;11.64;48.51;94994.72;5053090;28;20482;-72
2023/10/17 12:33:22;;;;;;;2.72;1.65;;;;;;;11.81;48.32;94993.28;5070575;28;20115;-72
2023/10/17 12:35:48;;;;;;;3.05;1.80;;;;;;;11.93;47.31;94992.28;5069643;28;20036;-72
2023/10/17 12:38:24;;;;;;;3.67;1.90;;;;;;;11.89;47.51;94993.50;5069288;28;20091;-72
2023/10/17 12:40:49;;;;;;;2.88;1.60;;;;;;;11.75;47.44;94986.00;5071021;28;20051;-72
2023/10/17 12:43:16;;;;;;;2.65;1.92;;;;;;;11.87;47.80;94991.97;5052550;28;20502;-72
2023/10/17 12:45:41;;;;;;;4.00;2.05;;;;;;;11.49;48.25;94991.63;5071542;28;20470;-72
2023/10/17 12:48:10;;;;;;;3.28;2.00;;;;;;;11.57;48.73;94988.41;5073088;28;20039;-72
2023/10/17 12:50:36;;;;;;;5.63;2.20;;;;;;;11.55;48.98;94988.50;5057211;28;20082;-72
2023/10/17 12:53:02;;;;;;;2.88;1.80;;;;;;;11.35;48.59;94964.16;5073133;28;20033;-72
2023/10/17 12:55:28;;;;;;;3.33;1.80;;;;;;;11.38;49.21;94994.31;5056692;28;20028;-72
2023/10/17 12:57:54;;;;;;;3.80;1.80;;;;;;;11.24;48.88;94971.22;5072990;28;20059;-72
2023/10/17 13:00:25;;;;;;;3.25;1.77;;;;;;;11.30;48.62;95000.13;5056541;28;20028;-72
2023/10/17 13:02:52;;;;;;;4.57;1.88;;;;;;;11.17;48.84;95002.94;5074137;28;20418;-72
2023/10/17 13:05:20;;;;;;;4.95;1.88;;;;;;;11.10;48.70;94983.56;5074449;28;20085;-72
2023/10/17 13:07:45;;;;;;;4.07;1.88;;;;;;;11.26;48.63;95000.53;5073965;28;20115;-72
2023/10/17 13:10:12;;;;;;;3.67;1.83;;;;;;;10.99;49.02;94983.63;5055886;28;20067;-72
2023/10/17 13:12:38;;;;;;;3.05;1.70;;;;;;;11.01;49.18;94980.91;5056225;28;20032;-72
2023/10/17 13:15:08;;;;;;;3.05;2.40;;;;;;;10.95;50.58;94992.66;5056295;28;20109;-72
2023/10/17 13:17:34;;;;;;;2.65;1.80;;;;;;;10.97;50.11;94995.91;5072536;28;20533;-72
2023/10/17 13:20:07;;;;;;;4.05;1.90;;;;;;;10.79;51.03;94987.84;5074063;28;20029;-72
2023/10/17 13:22:36;;;;;;;4.38;2.03;;;;;;;10.89;51.41;94993.13;5072702;28;20033;-72
2023/10/17 13:25:04;;;;;;;3.00;1.85;;;;;;;10.88;51.79;94992.31;5056480;28;20039;-72
2023/10/17 13:27:29;;;;;;;4.25;1.70;;;;;;;10.83;51.77;94993.63;5072544;28;20310;-72
2023/10/17 13:29:55;;;;;;;3.72;1.80;;;;;;;10.64;53.14;94991.69;5055735;28;20028;-72
2023/10/17 13:32:23;;;;;;;6.13;1.80;;;;;;;10.64;52.89;94989.94;5073526;28;20104;-72
2023/10/17 13:34:51;;;;;;;3.00;1.80;;;;;;;10.55;52.60;94979.44;5072411;28;20064;-72
2023/10/17 13:37:16;;;;;;;3.10;1.80;;;;;;;10.50;52.53;94993.63;5055945;28;20086;-72
2023/10/17 13:39:42;;;;;;;5.00;2.00;;;;;;;10.51;53.54;94989.25;5055580;28;20037;-72
2023/10/17 13:42:09;;;;;;;2.97;1.83;;;;;;;10.41;54.10;94990.91;5071982;28;20028;-72
2023/10/17 13:44:35;;;;;;;5.20;1.90;;;;;;;10.38;53.65;94988.56;5073600;28;20020;-72
2023/10/17 13:47:00;;;;;;;2.50;1.52;;;;;;;10.46;53.75;94989.59;5072079;28;20498;-72
2023/10/17 13:49:27;;;;;;;2.60;1.77;;;;;;;10.27;54.43;94969.47;5073534;28;20036;-72
2023/10/17 13:51:54;;;;;;;2.47;1.77;;;;;;;10.34;54.25;94990.59;5073179;28;20063;-71
2023/10/17 13:54:19;;;;;;;2.85;2.10;;;;;;;10.41;54.16;94990.91;5073337;28;20513;-72
2023/10/17 13:56:44;;;;;;;3.47;2.13;;;;;;;10.47;54.43;94987.81;5054676;28;20036;-72
2023/10/17 13:59:10;;;;;;;4.55;2.15;;;;;;;10.28;54.95;94989.31;5055138;28;20021;-72
2023/10/17 14:01:42;;;;;;;2.83;1.90;;;;;;;10.27;55.67;94990.22;5055258;28;20463;-72
2023/10/17 14:04:09;;;;;;;3.08;1.90;;;;;;;10.30;56.71;94986.56;5071830;28;20066;-72
2023/10/17 14:06:38;;;;;;;3.80;2.08;;;;;;;10.26;57.43;94954.81;5071822;28;20037;-72